createdAt,value
2017-08-01T00:00:00.208Z,0
2017-08-01T00:01:00.525Z,0
2017-08-01T00:02:00.465Z,0
2017-08-01T00:03:00.449Z,0
2017-08-01T00:04:00.480Z,0
2017-08-01T00:05:00.446Z,0
2017-08-01T00:06:00.719Z,0
2017-08-01T00:07:00.211Z,0
2017-08-01T00:08:00.093Z,0
2017-08-01T00:09:00.487Z,0
2017-08-01T00:10:00.377Z,0
2017-08-01T00:11:00.357Z,0
2017-08-01T00:12:00.354Z,0
2017-08-01T00:13:00.042Z,0
2017-08-01T00:14:00.013Z,0
2017-08-01T00:14:59.982Z,0
2017-08-01T00:16:00.292Z,0
2017-08-01T00:17:00.074Z,0
2017-08-01T00:17:59.954Z,0
2017-08-01T00:19:00.270Z,0
2017-08-01T00:20:00.277Z,0
2017-08-01T00:21:00.213Z,0
2017-08-01T00:22:00.199Z,0
2017-08-01T00:23:00.199Z,0
2017-08-01T00:23:59.872Z,0
2017-08-01T00:25:00.159Z,0
2017-08-01T00:25:59.840Z,0
2017-08-01T00:26:59.885Z,0
2017-08-01T00:27:59.835Z,0
2017-08-01T00:29:00.125Z,0
2017-08-01T00:30:00.089Z,0
2017-08-01T00:31:00.093Z,0
2017-08-01T00:32:00.380Z,0
2017-08-01T00:33:00.083Z,0
2017-08-01T00:34:00.051Z,0
2017-08-01T00:35:00.032Z,0
2017-08-01T00:36:00.382Z,0
2017-08-01T00:37:00.033Z,0
2017-08-01T00:38:00.419Z,0
2017-08-01T00:39:00.003Z,0
2017-08-01T00:39:59.976Z,0
2017-08-01T00:41:00.286Z,0
2017-08-01T00:41:59.962Z,0
2017-08-01T00:43:00.051Z,0
2017-08-01T00:43:59.615Z,0
2017-08-01T00:45:00.330Z,0
2017-08-01T00:45:59.892Z,0
2017-08-01T00:47:00.225Z,0
2017-08-01T00:48:00.176Z,0
2017-08-01T00:49:00.216Z,0
2017-08-01T00:49:59.543Z,0
2017-08-01T00:50:59.852Z,0
2017-08-01T00:52:00.132Z,0
2017-08-01T00:52:59.499Z,0
2017-08-01T00:54:00.112Z,0
2017-08-01T00:55:00.131Z,0
2017-08-01T00:55:59.457Z,0
2017-08-01T00:56:59.731Z,0
2017-08-01T00:58:00.035Z,0
2017-08-01T00:59:00.022Z,0
2017-08-01T01:00:00.003Z,0
2017-08-01T01:00:59.394Z,0
2017-08-01T01:01:59.402Z,0
2017-08-01T01:03:00.013Z,0
2017-08-01T01:03:59.352Z,0
2017-08-01T01:04:59.349Z,0
2017-08-01T01:05:59.632Z,0
2017-08-01T01:06:59.619Z,0
2017-08-01T01:07:59.621Z,0
2017-08-01T01:08:59.912Z,0
2017-08-01T01:09:59.583Z,0
2017-08-01T01:10:59.562Z,0
2017-08-01T01:11:59.253Z,0
2017-08-01T01:12:59.528Z,0
2017-08-01T01:13:59.542Z,0
2017-08-01T01:14:59.579Z,0
2017-08-01T01:15:59.626Z,0
2017-08-01T01:16:59.487Z,0
2017-08-01T01:17:59.475Z,0
2017-08-01T01:18:59.466Z,0
2017-08-01T01:19:59.437Z,0
2017-08-01T01:20:59.451Z,0
2017-08-01T01:21:59.751Z,0
2017-08-01T01:22:59.108Z,0
2017-08-01T01:23:59.722Z,0
2017-08-01T01:24:59.364Z,0
2017-08-01T01:25:59.673Z,0
2017-08-01T01:26:59.663Z,0
2017-08-01T01:27:59.343Z,0
2017-08-01T01:28:59.628Z,0
2017-08-01T01:29:59.113Z,0
2017-08-01T01:30:59.616Z,0
2017-08-01T01:31:59.597Z,0
2017-08-01T01:32:59.027Z,0
2017-08-01T01:33:59.562Z,0
2017-08-01T01:34:59.568Z,0
2017-08-01T01:35:59.003Z,0
2017-08-01T01:36:58.914Z,0
2017-08-01T01:37:59.545Z,0
2017-08-01T01:38:59.193Z,0
2017-08-01T01:39:59.209Z,0
2017-08-01T01:40:58.560Z,0
2017-08-01T01:41:59.482Z,0
2017-08-01T01:42:58.893Z,0
2017-08-01T01:43:58.921Z,0
2017-08-01T01:44:58.822Z,0
2017-08-01T01:45:59.430Z,0
2017-08-01T01:46:59.483Z,0
2017-08-01T01:47:59.132Z,0
2017-08-01T01:48:59.074Z,0
2017-08-01T01:49:58.794Z,0
2017-08-01T01:50:59.059Z,0
2017-08-01T01:51:58.711Z,0
2017-08-01T01:52:58.760Z,0
2017-08-01T01:53:58.711Z,0
2017-08-01T01:54:59.332Z,0
2017-08-01T01:55:58.685Z,0
2017-08-01T01:56:58.382Z,0
2017-08-01T01:57:58.644Z,0
2017-08-01T01:58:58.731Z,0
2017-08-01T01:59:58.928Z,0
2017-08-01T02:00:58.303Z,0
2017-08-01T02:01:58.963Z,0
2017-08-01T02:02:58.882Z,0
2017-08-01T02:03:58.882Z,0
2017-08-01T02:04:59.160Z,0
2017-08-01T02:05:58.853Z,0
2017-08-01T02:06:58.530Z,0
2017-08-01T02:07:58.814Z,0
2017-08-01T02:08:58.804Z,0
2017-08-01T02:09:59.098Z,0
2017-08-01T02:10:58.782Z,0
2017-08-01T02:11:58.438Z,0
2017-08-01T02:12:58.442Z,0
2017-08-01T02:13:59.042Z,0
2017-08-01T02:14:58.109Z,0
2017-08-01T02:15:58.709Z,0
2017-08-01T02:16:58.696Z,0
2017-08-01T02:17:58.685Z,0
2017-08-01T02:18:58.367Z,0
2017-08-01T02:19:58.345Z,0
2017-08-01T02:20:58.683Z,0
2017-08-01T02:21:58.965Z,0
2017-08-01T02:22:58.942Z,0
2017-08-01T02:23:58.300Z,0
2017-08-01T02:24:58.282Z,0
2017-08-01T02:25:58.873Z,0
2017-08-01T02:26:58.881Z,0
2017-08-01T02:27:57.953Z,0
2017-08-01T02:28:58.559Z,0
2017-08-01T02:29:58.862Z,0
2017-08-01T02:30:58.841Z,0
2017-08-01T02:31:58.276Z,0
2017-08-01T02:32:58.316Z,0
2017-08-01T02:33:58.772Z,0
2017-08-01T02:34:58.490Z,0
2017-08-01T02:35:58.452Z,0
2017-08-01T02:36:58.753Z,0
2017-08-01T02:37:58.432Z,0
2017-08-01T02:38:58.404Z,0
2017-08-01T02:39:58.426Z,0
2017-08-01T02:40:58.398Z,0
2017-08-01T02:41:58.661Z,0
2017-08-01T02:42:58.063Z,0
2017-08-01T02:43:58.361Z,0
2017-08-01T02:44:58.024Z,0
2017-08-01T02:45:58.310Z,0
2017-08-01T02:46:58.283Z,0
2017-08-01T02:47:58.568Z,0
2017-08-01T02:48:57.962Z,0
2017-08-01T02:49:58.244Z,0
2017-08-01T02:50:58.561Z,0
2017-08-01T02:51:58.249Z,0
2017-08-01T02:52:58.518Z,0
2017-08-01T02:53:57.902Z,0
2017-08-01T02:54:58.502Z,0
2017-08-01T02:55:57.855Z,0
2017-08-01T02:56:58.152Z,0
2017-08-01T02:57:58.474Z,0
2017-08-01T02:58:58.121Z,0
2017-08-01T02:59:58.174Z,0
2017-08-01T03:00:58.104Z,0
2017-08-01T03:01:58.090Z,0
2017-08-01T03:02:58.382Z,0
2017-08-01T03:03:58.376Z,0
2017-08-01T03:04:58.039Z,0
2017-08-01T03:05:57.423Z,0
2017-08-01T03:06:58.326Z,0
2017-08-01T03:07:58.090Z,0
2017-08-01T03:08:57.496Z,0
2017-08-01T03:09:57.675Z,0
2017-08-01T03:10:57.750Z,0
2017-08-01T03:11:57.645Z,0
2017-08-01T03:12:58.023Z,0
2017-08-01T03:13:57.613Z,0
2017-08-01T03:14:57.683Z,0
2017-08-01T03:15:57.913Z,0
2017-08-01T03:16:57.590Z,0
2017-08-01T03:17:57.872Z,0
2017-08-01T03:18:57.648Z,0
2017-08-01T03:19:57.543Z,0
2017-08-01T03:20:57.863Z,0
2017-08-01T03:21:57.812Z,0
2017-08-01T03:22:57.942Z,0
2017-08-01T03:23:58.093Z,0
2017-08-01T03:24:57.266Z,0
2017-08-01T03:25:57.747Z,0
2017-08-01T03:26:58.064Z,0
2017-08-01T03:27:57.434Z,0
2017-08-01T03:28:57.702Z,0
2017-08-01T03:29:57.710Z,0
2017-08-01T03:30:57.119Z,0
2017-08-01T03:31:57.733Z,0
2017-08-01T03:32:57.712Z,0
2017-08-01T03:33:57.656Z,0
2017-08-01T03:34:57.641Z,0
2017-08-01T03:35:57.948Z,0
2017-08-01T03:36:57.603Z,0
2017-08-01T03:37:57.615Z,0
2017-08-01T03:38:57.589Z,0
2017-08-01T03:39:57.931Z,0
2017-08-01T03:40:57.877Z,0
2017-08-01T03:41:57.852Z,0
2017-08-01T03:42:57.822Z,0
2017-08-01T03:43:57.537Z,0
2017-08-01T03:44:57.482Z,0
2017-08-01T03:45:57.782Z,0
2017-08-01T03:46:57.462Z,0
2017-08-01T03:47:57.481Z,0
2017-08-01T03:48:57.456Z,0
2017-08-01T03:49:57.112Z,0
2017-08-01T03:50:57.721Z,0
2017-08-01T03:51:57.718Z,0
2017-08-01T03:52:57.693Z,0
2017-08-01T03:53:57.692Z,0
2017-08-01T03:54:57.370Z,0
2017-08-01T03:55:57.649Z,0
2017-08-01T03:56:57.632Z,0
2017-08-01T03:57:57.613Z,0
2017-08-01T03:58:57.624Z,0
2017-08-01T03:59:57.343Z,0
2017-08-01T04:00:56.982Z,0
2017-08-01T04:01:57.589Z,0
2017-08-01T04:02:57.567Z,0
2017-08-01T04:03:57.542Z,0
2017-08-01T04:04:57.205Z,0
2017-08-01T04:05:57.210Z,0
2017-08-01T04:06:56.644Z,0
2017-08-01T04:07:56.332Z,0
2017-08-01T04:08:57.173Z,0
2017-08-01T04:09:56.530Z,5
2017-08-01T04:10:57.228Z,5
2017-08-01T04:11:57.151Z,5
2017-08-01T04:12:56.805Z,5
2017-08-01T04:13:57.420Z,5
2017-08-01T04:14:56.760Z,5
2017-08-01T04:15:56.759Z,5
2017-08-01T04:16:56.762Z,5
2017-08-01T04:17:57.141Z,5
2017-08-01T04:18:57.053Z,5
2017-08-01T04:19:57.041Z,5
2017-08-01T04:20:57.313Z,5
2017-08-01T04:21:56.981Z,10
2017-08-01T04:22:56.992Z,10
2017-08-01T04:23:56.662Z,10
2017-08-01T04:24:56.953Z,10
2017-08-01T04:25:56.633Z,10
2017-08-01T04:26:57.215Z,10
2017-08-01T04:27:57.290Z,15
2017-08-01T04:28:56.572Z,15
2017-08-01T04:29:57.310Z,15
2017-08-01T04:30:57.160Z,15
2017-08-01T04:31:56.851Z,20
2017-08-01T04:32:56.961Z,20
2017-08-01T04:33:56.507Z,20
2017-08-01T04:34:56.188Z,25
2017-08-01T04:35:56.501Z,25
2017-08-01T04:36:56.453Z,25
2017-08-01T04:37:57.141Z,25
2017-08-01T04:38:56.733Z,30
2017-08-01T04:39:57.052Z,30
2017-08-01T04:40:56.425Z,30
2017-08-01T04:41:57.121Z,30
2017-08-01T04:42:55.774Z,30
2017-08-01T04:43:56.430Z,30
2017-08-01T04:44:56.355Z,30
2017-08-01T04:45:57.017Z,35
2017-08-01T04:46:56.321Z,35
2017-08-01T04:47:57.090Z,40
2017-08-01T04:48:56.604Z,40
2017-08-01T04:49:56.612Z,40
2017-08-01T04:50:56.571Z,40
2017-08-01T04:51:56.902Z,40
2017-08-01T04:52:56.851Z,35
2017-08-01T04:53:56.841Z,35
2017-08-01T04:54:56.853Z,40
2017-08-01T04:55:55.584Z,40
2017-08-01T04:56:56.489Z,40
2017-08-01T04:57:56.489Z,40
2017-08-01T04:58:56.484Z,45
2017-08-01T04:59:56.160Z,45
2017-08-01T05:00:56.772Z,45
2017-08-01T05:01:56.802Z,45
2017-08-01T05:02:56.510Z,45
2017-08-01T05:03:56.401Z,50
2017-08-01T05:04:56.353Z,50
2017-08-01T05:05:56.371Z,50
2017-08-01T05:06:56.412Z,50
2017-08-01T05:07:56.055Z,50
2017-08-01T05:08:56.391Z,55
2017-08-01T05:09:56.004Z,55
2017-08-01T05:10:56.310Z,55
2017-08-01T05:11:56.280Z,55
2017-08-01T05:12:56.342Z,60
2017-08-01T05:13:56.580Z,60
2017-08-01T05:14:55.979Z,60
2017-08-01T05:15:56.272Z,60
2017-08-01T05:16:56.230Z,60
2017-08-01T05:17:56.227Z,60
2017-08-01T05:18:55.999Z,65
2017-08-01T05:19:55.889Z,65
2017-08-01T05:20:56.152Z,70
2017-08-01T05:21:56.468Z,70
2017-08-01T05:22:55.852Z,75
2017-08-01T05:23:56.140Z,75
2017-08-01T05:24:55.513Z,80
2017-08-01T05:25:56.974Z,80
2017-08-01T05:26:56.395Z,80
2017-08-01T05:27:56.076Z,75
2017-08-01T05:28:56.083Z,75
2017-08-01T05:29:56.039Z,70
2017-08-01T05:30:56.252Z,70
2017-08-01T05:31:56.342Z,65
2017-08-01T05:32:55.990Z,70
2017-08-01T05:33:55.929Z,70
2017-08-01T05:34:56.296Z,75
2017-08-01T05:35:55.656Z,75
2017-08-01T05:36:55.651Z,75
2017-08-01T05:37:56.168Z,70
2017-08-01T05:38:56.223Z,75
2017-08-01T05:39:55.903Z,65
2017-08-01T05:40:55.923Z,65
2017-08-01T05:41:55.864Z,65
2017-08-01T05:42:55.657Z,65
2017-08-01T05:43:55.928Z,65
2017-08-01T05:44:55.268Z,65
2017-08-01T05:45:55.892Z,70
2017-08-01T05:46:55.513Z,75
2017-08-01T05:47:55.513Z,75
2017-08-01T05:48:56.083Z,80
2017-08-01T05:49:55.489Z,80
2017-08-01T05:50:55.156Z,80
2017-08-01T05:51:55.754Z,85
2017-08-01T05:52:55.460Z,85
2017-08-01T05:53:55.420Z,85
2017-08-01T05:54:55.405Z,85
2017-08-01T05:55:55.749Z,85
2017-08-01T05:56:55.831Z,90
2017-08-01T05:57:55.392Z,85
2017-08-01T05:58:55.669Z,85
2017-08-01T05:59:55.350Z,85
2017-08-01T06:00:55.682Z,85
2017-08-01T06:01:56.002Z,85
2017-08-01T06:02:55.325Z,80
2017-08-01T06:03:56.002Z,80
2017-08-01T06:04:55.303Z,80
2017-08-01T06:05:55.572Z,80
2017-08-01T06:06:55.259Z,80
2017-08-01T06:07:55.545Z,80
2017-08-01T06:08:55.242Z,80
2017-08-01T06:09:55.229Z,80
2017-08-01T06:10:55.244Z,80
2017-08-01T06:11:55.507Z,85
2017-08-01T06:12:56.031Z,95
2017-08-01T06:13:55.788Z,95
2017-08-01T06:14:55.852Z,100
2017-08-01T06:15:55.174Z,100
2017-08-01T06:16:55.228Z,105
2017-08-01T06:17:55.418Z,105
2017-08-01T06:18:55.397Z,110
2017-08-01T06:19:55.389Z,110
2017-08-01T06:20:55.376Z,120
2017-08-01T06:21:55.370Z,120
2017-08-01T06:22:55.349Z,120
2017-08-01T06:23:55.693Z,105
2017-08-01T06:24:55.329Z,95
2017-08-01T06:25:55.312Z,95
2017-08-01T06:26:55.351Z,110
2017-08-01T06:27:55.297Z,115
2017-08-01T06:28:55.272Z,115
2017-08-01T06:29:55.575Z,120
2017-08-01T06:30:55.249Z,125
2017-08-01T06:31:54.936Z,130
2017-08-01T06:32:55.224Z,140
2017-08-01T06:33:55.513Z,135
2017-08-01T06:34:55.506Z,130
2017-08-01T06:35:55.182Z,135
2017-08-01T06:36:55.183Z,150
2017-08-01T06:37:55.145Z,155
2017-08-01T06:38:55.442Z,145
2017-08-01T06:39:55.434Z,155
2017-08-01T06:40:54.823Z,170
2017-08-01T06:41:55.442Z,180
2017-08-01T06:42:55.396Z,180
2017-08-01T06:43:55.389Z,185
2017-08-01T06:44:55.374Z,185
2017-08-01T06:45:55.838Z,190
2017-08-01T06:46:55.051Z,195
2017-08-01T06:47:55.021Z,180
2017-08-01T06:48:55.335Z,175
2017-08-01T06:49:54.921Z,170
2017-08-01T06:50:54.993Z,165
2017-08-01T06:51:55.282Z,155
2017-08-01T06:52:54.734Z,150
2017-08-01T06:53:54.674Z,150
2017-08-01T06:54:55.247Z,145
2017-08-01T06:55:55.238Z,145
2017-08-01T06:56:55.251Z,145
2017-08-01T06:57:55.217Z,150
2017-08-01T06:58:55.223Z,155
2017-08-01T06:59:55.195Z,160
2017-08-01T07:00:55.210Z,165
2017-08-01T07:01:55.186Z,170
2017-08-01T07:02:55.384Z,185
2017-08-01T07:03:55.152Z,190
2017-08-01T07:04:55.193Z,190
2017-08-01T07:05:54.867Z,190
2017-08-01T07:06:55.130Z,185
2017-08-01T07:07:54.506Z,185
2017-08-01T07:08:55.155Z,175
2017-08-01T07:09:54.770Z,170
2017-08-01T07:10:54.846Z,165
2017-08-01T07:11:54.764Z,170
2017-08-01T07:12:54.443Z,180
2017-08-01T07:13:55.051Z,185
2017-08-01T07:14:54.714Z,190
2017-08-01T07:15:54.388Z,190
2017-08-01T07:16:54.702Z,190
2017-08-01T07:17:54.991Z,190
2017-08-01T07:18:54.362Z,195
2017-08-01T07:19:54.328Z,195
2017-08-01T07:20:54.992Z,200
2017-08-01T07:21:55.053Z,200
2017-08-01T07:22:54.623Z,200
2017-08-01T07:23:54.610Z,210
2017-08-01T07:24:54.603Z,210
2017-08-01T07:25:54.440Z,210
2017-08-01T07:26:54.887Z,215
2017-08-01T07:27:54.672Z,220
2017-08-01T07:28:54.542Z,220
2017-08-01T07:29:54.581Z,200
2017-08-01T07:30:54.640Z,170
2017-08-01T07:31:53.905Z,185
2017-08-01T07:32:54.821Z,175
2017-08-01T07:33:54.510Z,165
2017-08-01T07:34:54.197Z,170
2017-08-01T07:35:54.773Z,175
2017-08-01T07:36:54.162Z,170
2017-08-01T07:37:54.756Z,195
2017-08-01T07:38:54.184Z,220
2017-08-01T07:39:54.433Z,225
2017-08-01T07:40:54.172Z,250
2017-08-01T07:41:54.717Z,250
2017-08-01T07:42:54.409Z,255
2017-08-01T07:43:54.113Z,240
2017-08-01T07:44:54.069Z,235
2017-08-01T07:45:53.761Z,225
2017-08-01T07:46:54.655Z,220
2017-08-01T07:47:54.352Z,215
2017-08-01T07:48:54.900Z,230
2017-08-01T07:49:54.313Z,195
2017-08-01T07:50:54.364Z,195
2017-08-01T07:51:54.624Z,215
2017-08-01T07:52:54.226Z,280
2017-08-01T07:53:53.680Z,280
2017-08-01T07:54:53.973Z,290
2017-08-01T07:55:54.573Z,290
2017-08-01T07:56:54.277Z,290
2017-08-01T07:57:54.243Z,280
2017-08-01T07:58:54.244Z,280
2017-08-01T07:59:54.260Z,265
2017-08-01T08:00:54.220Z,260
2017-08-01T08:01:54.201Z,245
2017-08-01T08:02:53.902Z,245
2017-08-01T08:03:54.484Z,240
2017-08-01T08:04:54.191Z,230
2017-08-01T08:05:54.472Z,200
2017-08-01T08:06:53.894Z,190
2017-08-01T08:07:54.152Z,190
2017-08-01T08:08:54.161Z,175
2017-08-01T08:09:54.157Z,170
2017-08-01T08:10:54.674Z,165
2017-08-01T08:11:53.542Z,155
2017-08-01T08:12:54.352Z,150
2017-08-01T08:13:54.092Z,150
2017-08-01T08:14:53.530Z,155
2017-08-01T08:15:54.631Z,155
2017-08-01T08:16:54.121Z,135
2017-08-01T08:18:23.527Z,115
2017-08-01T08:18:54.072Z,120
2017-08-01T08:19:54.033Z,110
2017-08-01T08:20:53.710Z,110
2017-08-01T08:21:54.049Z,110
2017-08-01T08:22:53.416Z,110
2017-08-01T08:23:54.013Z,115
2017-08-01T08:24:53.999Z,120
2017-08-01T08:25:53.670Z,125
2017-08-01T08:26:53.969Z,130
2017-08-01T08:27:54.349Z,130
2017-08-01T08:28:54.289Z,125
2017-08-01T08:29:53.612Z,125
2017-08-01T08:30:53.927Z,125
2017-08-01T08:31:54.249Z,130
2017-08-01T08:32:54.400Z,130
2017-08-01T08:33:54.224Z,135
2017-08-01T08:34:54.190Z,145
2017-08-01T08:35:54.160Z,145
2017-08-01T08:36:52.928Z,160
2017-08-01T08:37:54.611Z,170
2017-08-01T08:38:54.159Z,190
2017-08-01T08:39:53.659Z,220
2017-08-01T08:40:53.808Z,230
2017-08-01T08:41:53.802Z,230
2017-08-01T08:42:54.089Z,235
2017-08-01T08:43:54.151Z,235
2017-08-01T08:44:54.092Z,210
2017-08-01T08:45:53.732Z,195
2017-08-01T08:46:53.756Z,195
2017-08-01T08:47:53.420Z,190
2017-08-01T08:48:53.258Z,205
2017-08-01T08:49:54.238Z,215
2017-08-01T08:50:53.695Z,190
2017-08-01T08:51:53.992Z,180
2017-08-01T08:52:53.437Z,165
2017-08-01T08:53:53.970Z,150
2017-08-01T08:54:53.973Z,130
2017-08-01T08:55:53.350Z,130
2017-08-01T08:56:53.760Z,130
2017-08-01T08:57:53.636Z,140
2017-08-01T08:58:53.920Z,160
2017-08-01T08:59:53.642Z,185
2017-08-01T09:00:53.599Z,215
2017-08-01T09:01:53.608Z,220
2017-08-01T09:02:54.005Z,230
2017-08-01T09:03:53.299Z,225
2017-08-01T09:04:53.250Z,225
2017-08-01T09:05:53.890Z,230
2017-08-01T09:06:53.474Z,235
2017-08-01T09:07:53.550Z,245
2017-08-01T09:08:53.845Z,240
2017-08-01T09:09:53.810Z,180
2017-08-01T09:10:53.259Z,175
2017-08-01T09:11:52.890Z,145
2017-08-01T09:12:53.269Z,140
2017-08-01T09:13:53.254Z,135
2017-08-01T09:14:52.851Z,120
2017-08-01T09:15:53.435Z,115
2017-08-01T09:16:53.756Z,135
2017-08-01T09:17:53.409Z,165
2017-08-01T09:18:53.087Z,135
2017-08-01T09:19:52.800Z,125
2017-08-01T09:20:53.134Z,125
2017-08-01T09:21:53.753Z,125
2017-08-01T09:22:53.458Z,130
2017-08-01T09:23:53.580Z,125
2017-08-01T09:24:53.329Z,125
2017-08-01T09:25:53.053Z,120
2017-08-01T09:26:53.141Z,110
2017-08-01T09:27:53.348Z,110
2017-08-01T09:28:53.169Z,110
2017-08-01T09:29:53.041Z,110
2017-08-01T09:30:53.280Z,110
2017-08-01T09:31:53.059Z,110
2017-08-01T09:32:53.391Z,115
2017-08-01T09:33:53.569Z,115
2017-08-01T09:34:53.237Z,115
2017-08-01T09:35:53.256Z,110
2017-08-01T09:36:52.933Z,110
2017-08-01T09:37:53.549Z,105
2017-08-01T09:38:53.237Z,100
2017-08-01T09:39:52.975Z,95
2017-08-01T09:40:53.180Z,90
2017-08-01T09:41:53.510Z,85
2017-08-01T09:42:53.477Z,80
2017-08-01T09:43:53.157Z,80
2017-08-01T09:44:52.882Z,80
2017-08-01T09:45:52.832Z,80
2017-08-01T09:46:53.443Z,80
2017-08-01T09:47:52.801Z,80
2017-08-01T09:48:52.791Z,85
2017-08-01T09:49:52.784Z,90
2017-08-01T09:50:52.776Z,90
2017-08-01T09:51:52.779Z,95
2017-08-01T09:52:52.800Z,95
2017-08-01T09:53:53.063Z,100
2017-08-01T09:54:53.040Z,100
2017-08-01T09:55:53.082Z,100
2017-08-01T09:56:52.714Z,100
2017-08-01T09:57:53.068Z,100
2017-08-01T09:58:53.033Z,100
2017-08-01T09:59:53.390Z,105
2017-08-01T10:00:52.759Z,105
2017-08-01T10:01:52.992Z,105
2017-08-01T10:02:52.960Z,110
2017-08-01T10:03:52.975Z,120
2017-08-01T10:04:52.620Z,140
2017-08-01T10:05:52.902Z,155
2017-08-01T10:06:52.581Z,155
2017-08-01T10:07:52.902Z,160
2017-08-01T10:08:52.575Z,175
2017-08-01T10:09:53.224Z,160
2017-08-01T10:10:53.210Z,150
2017-08-01T10:11:53.151Z,135
2017-08-01T10:12:52.832Z,120
2017-08-01T10:13:52.833Z,105
2017-08-01T10:14:52.813Z,85
2017-08-01T10:15:52.808Z,80
2017-08-01T10:16:52.813Z,70
2017-08-01T10:17:53.103Z,70
2017-08-01T10:18:52.752Z,70
2017-08-01T10:19:52.784Z,65
2017-08-01T10:20:52.429Z,65
2017-08-01T10:21:53.434Z,70
2017-08-01T10:22:53.064Z,70
2017-08-01T10:23:52.702Z,70
2017-08-01T10:24:53.021Z,75
2017-08-01T10:25:52.984Z,85
2017-08-01T10:26:52.397Z,100
2017-08-01T10:27:52.995Z,105
2017-08-01T10:28:52.662Z,120
2017-08-01T10:29:52.961Z,130
2017-08-01T10:30:52.698Z,145
2017-08-01T10:31:52.322Z,165
2017-08-01T10:32:52.917Z,180
2017-08-01T10:33:52.921Z,200
2017-08-01T10:34:52.887Z,235
2017-08-01T10:35:52.860Z,280
2017-08-01T10:36:53.104Z,315
2017-08-01T10:37:52.869Z,335
2017-08-01T10:38:52.842Z,355
2017-08-01T10:39:52.832Z,390
2017-08-01T10:40:52.823Z,385
2017-08-01T10:41:52.831Z,320
2017-08-01T10:42:52.807Z,365
2017-08-01T10:43:52.800Z,315
2017-08-01T10:44:52.793Z,340
2017-08-01T10:45:52.470Z,340
2017-08-01T10:46:52.781Z,355
2017-08-01T10:47:52.142Z,320
2017-08-01T10:48:52.443Z,335
2017-08-01T10:49:52.748Z,370
2017-08-01T10:50:52.470Z,380
2017-08-01T10:51:52.742Z,395
2017-08-01T10:52:52.101Z,370
2017-08-01T10:53:52.117Z,385
2017-08-01T10:54:52.794Z,355
2017-08-01T10:55:52.395Z,315
2017-08-01T10:56:52.442Z,280
2017-08-01T10:57:52.381Z,250
2017-08-01T10:58:52.916Z,235
2017-08-01T10:59:52.382Z,225
2017-08-01T11:00:52.358Z,200
2017-08-01T11:01:52.693Z,190
2017-08-01T11:02:52.329Z,180
2017-08-01T11:03:52.481Z,175
2017-08-01T11:04:52.282Z,175
2017-08-01T11:05:52.672Z,175
2017-08-01T11:06:52.265Z,270
2017-08-01T11:07:52.312Z,240
2017-08-01T11:08:52.601Z,260
2017-08-01T11:09:52.252Z,200
2017-08-01T11:10:52.550Z,210
2017-08-01T11:11:52.243Z,225
2017-08-01T11:12:52.532Z,230
2017-08-01T11:13:52.233Z,245
2017-08-01T11:14:52.603Z,240
2017-08-01T11:15:52.217Z,260
2017-08-01T11:16:51.922Z,265
2017-08-01T11:17:52.498Z,285
2017-08-01T11:18:52.486Z,310
2017-08-01T11:19:51.870Z,320
2017-08-01T11:20:52.170Z,320
2017-08-01T11:21:52.221Z,310
2017-08-01T11:22:52.453Z,315
2017-08-01T11:23:52.454Z,355
2017-08-01T11:24:52.435Z,305
2017-08-01T11:25:51.811Z,285
2017-08-01T11:26:52.412Z,295
2017-08-01T11:27:52.419Z,300
2017-08-01T11:28:51.857Z,290
2017-08-01T11:29:52.402Z,300
2017-08-01T11:30:52.421Z,320
2017-08-01T11:31:52.384Z,320
2017-08-01T11:32:51.780Z,315
2017-08-01T11:33:52.985Z,320
2017-08-01T11:34:52.365Z,340
2017-08-01T11:35:51.723Z,355
2017-08-01T11:36:52.346Z,345
2017-08-01T11:37:51.420Z,340
2017-08-01T11:38:52.072Z,340
2017-08-01T11:39:52.330Z,325
2017-08-01T11:40:52.362Z,305
2017-08-01T11:41:52.323Z,275
2017-08-01T11:42:51.690Z,210
2017-08-01T11:43:52.331Z,170
2017-08-01T11:44:52.253Z,135
2017-08-01T11:45:51.952Z,120
2017-08-01T11:46:51.773Z,105
2017-08-01T11:47:52.293Z,100
2017-08-01T11:48:52.362Z,100
2017-08-01T11:49:52.272Z,100
2017-08-01T11:50:52.309Z,100
2017-08-01T11:51:51.599Z,95
2017-08-01T11:52:51.612Z,100
2017-08-01T11:53:52.002Z,105
2017-08-01T11:54:51.647Z,110
2017-08-01T11:55:51.907Z,110
2017-08-01T11:56:51.562Z,110
2017-08-01T11:57:52.073Z,100
2017-08-01T11:58:52.178Z,90
2017-08-01T11:59:51.852Z,85
2017-08-01T12:00:51.817Z,85
2017-08-01T12:01:51.897Z,85
2017-08-01T12:02:51.573Z,80
2017-08-01T12:03:51.810Z,80
2017-08-01T12:04:51.162Z,75
2017-08-01T12:05:52.079Z,75
2017-08-01T12:06:52.001Z,80
2017-08-01T12:07:52.146Z,85
2017-08-01T12:08:51.941Z,90
2017-08-01T12:09:51.753Z,90
2017-08-01T12:10:52.034Z,90
2017-08-01T12:11:51.734Z,85
2017-08-01T12:12:52.041Z,85
2017-08-01T12:13:52.012Z,85
2017-08-01T12:14:51.703Z,90
2017-08-01T12:15:52.031Z,95
2017-08-01T12:16:51.501Z,105
2017-08-01T12:17:51.658Z,105
2017-08-01T12:18:51.963Z,105
2017-08-01T12:19:51.018Z,105
2017-08-01T12:20:52.151Z,105
2017-08-01T12:21:51.354Z,110
2017-08-01T12:22:51.661Z,115
2017-08-01T12:23:51.610Z,120
2017-08-01T12:24:51.601Z,125
2017-08-01T12:25:51.891Z,135
2017-08-01T12:26:51.600Z,145
2017-08-01T12:27:51.250Z,155
2017-08-01T12:28:51.571Z,170
2017-08-01T12:29:51.244Z,185
2017-08-01T12:30:51.601Z,190
2017-08-01T12:31:51.770Z,180
2017-08-01T12:32:50.910Z,165
2017-08-01T12:33:51.585Z,150
2017-08-01T12:34:51.200Z,145
2017-08-01T12:35:51.501Z,120
2017-08-01T12:36:51.523Z,105
2017-08-01T12:37:51.240Z,90
2017-08-01T12:38:51.828Z,80
2017-08-01T12:39:51.162Z,75
2017-08-01T12:40:51.821Z,70
2017-08-01T12:41:51.452Z,70
2017-08-01T12:42:51.731Z,65
2017-08-01T12:43:51.335Z,60
2017-08-01T12:44:51.105Z,60
2017-08-01T12:45:51.422Z,55
2017-08-01T12:46:51.071Z,50
2017-08-01T12:47:51.719Z,50
2017-08-01T12:48:51.667Z,45
2017-08-01T12:49:51.681Z,45
2017-08-01T12:50:51.649Z,50
2017-08-01T12:51:50.709Z,50
2017-08-01T12:52:51.330Z,55
2017-08-01T12:53:51.309Z,55
2017-08-01T12:54:50.671Z,60
2017-08-01T12:55:51.588Z,60
2017-08-01T12:56:51.294Z,60
2017-08-01T12:57:51.060Z,60
2017-08-01T12:58:51.255Z,60
2017-08-01T12:59:51.560Z,55
2017-08-01T13:00:51.537Z,55
2017-08-01T13:01:51.531Z,55
2017-08-01T13:02:51.504Z,50
2017-08-01T13:03:50.894Z,50
2017-08-01T13:04:50.901Z,50
2017-08-01T13:05:50.575Z,55
2017-08-01T13:06:50.865Z,55
2017-08-01T13:07:51.243Z,50
2017-08-01T13:08:50.918Z,50
2017-08-01T13:09:50.842Z,50
2017-08-01T13:10:51.124Z,50
2017-08-01T13:11:51.131Z,50
2017-08-01T13:12:51.144Z,45
2017-08-01T13:13:51.111Z,40
2017-08-01T13:14:51.186Z,40
2017-08-01T13:15:51.124Z,40
2017-08-01T13:16:51.101Z,40
2017-08-01T13:17:51.101Z,40
2017-08-01T13:18:51.429Z,40
2017-08-01T13:19:51.368Z,40
2017-08-01T13:20:51.392Z,45
2017-08-01T13:21:51.402Z,45
2017-08-01T13:22:50.719Z,45
2017-08-01T13:23:51.351Z,45
2017-08-01T13:24:51.471Z,45
2017-08-01T13:25:50.663Z,45
2017-08-01T13:26:50.730Z,45
2017-08-01T13:27:50.671Z,45
2017-08-01T13:28:50.656Z,45
2017-08-01T13:29:51.298Z,40
2017-08-01T13:30:51.225Z,40
2017-08-01T13:31:50.919Z,40
2017-08-01T13:32:50.945Z,40
2017-08-01T13:33:50.891Z,40
2017-08-01T13:34:50.956Z,45
2017-08-01T13:35:51.392Z,35
2017-08-01T13:36:50.297Z,30
2017-08-01T13:37:50.562Z,30
2017-08-01T13:38:50.899Z,30
2017-08-01T13:39:50.833Z,30
2017-08-01T13:40:50.828Z,30
2017-08-01T13:41:50.799Z,35
2017-08-01T13:42:50.800Z,35
2017-08-01T13:43:51.115Z,35
2017-08-01T13:44:51.089Z,40
2017-08-01T13:45:50.483Z,45
2017-08-01T13:46:50.777Z,45
2017-08-01T13:47:50.731Z,50
2017-08-01T13:48:50.669Z,60
2017-08-01T13:49:51.024Z,65
2017-08-01T13:50:51.034Z,70
2017-08-01T13:51:50.394Z,70
2017-08-01T13:52:50.394Z,80
2017-08-01T13:53:50.391Z,85
2017-08-01T13:54:50.378Z,95
2017-08-01T13:55:50.977Z,110
2017-08-01T13:56:50.366Z,115
2017-08-01T13:57:50.639Z,125
2017-08-01T13:58:50.627Z,125
2017-08-01T13:59:50.643Z,125
2017-08-01T14:00:50.617Z,125
2017-08-01T14:01:51.161Z,125
2017-08-01T14:02:50.918Z,120
2017-08-01T14:03:50.694Z,115
2017-08-01T14:04:50.589Z,120
2017-08-01T14:05:50.562Z,120
2017-08-01T14:06:50.860Z,110
2017-08-01T14:07:50.557Z,105
2017-08-01T14:08:50.833Z,105
2017-08-01T14:09:50.529Z,110
2017-08-01T14:10:50.838Z,110
2017-08-01T14:11:50.496Z,115